sensor_id;sensor_type;location;lat;lon;timestamp;P1;durP1;ratioP1;P2;durP2;ratioP2
11839;SDS011;5979;50.800;4.904;2023-04-25T00:01:24;5.35;;;4.85;;
11839;SDS011;5979;50.800;4.904;2023-04-25T00:03:50;5.90;;;4.80;;
11839;SDS011;5979;50.800;4.904;2023-04-25T00:06:16;6.68;;;5.00;;
11839;SDS011;5979;50.800;4.904;2023-04-25T00:08:43;8.68;;;5.63;;
11839;SDS011;5979;50.800;4.904;2023-04-25T00:11:12;9.07;;;5.25;;
11839;SDS011;5979;50.800;4.904;2023-04-25T00:13:38;10.25;;;5.57;;
11839;SDS011;5979;50.800;4.904;2023-04-25T00:16:06;8.20;;;5.22;;
11839;SDS011;5979;50.800;4.904;2023-04-25T00:18:35;8.82;;;5.03;;
11839;SDS011;5979;50.800;4.904;2023-04-25T00:21:01;6.88;;;5.18;;
11839;SDS011;5979;50.800;4.904;2023-04-25T00:23:27;9.35;;;5.13;;
11839;SDS011;5979;50.800;4.904;2023-04-25T00:25:53;8.70;;;5.55;;
11839;SDS011;5979;50.800;4.904;2023-04-25T00:28:22;8.73;;;5.43;;
11839;SDS011;5979;50.800;4.904;2023-04-25T00:30:47;8.07;;;5.63;;
11839;SDS011;5979;50.800;4.904;2023-04-25T00:33:13;10.75;;;5.40;;
11839;SDS011;5979;50.800;4.904;2023-04-25T00:35:38;8.70;;;5.30;;
11839;SDS011;5979;50.800;4.904;2023-04-25T00:38:04;7.72;;;5.57;;
11839;SDS011;5979;50.800;4.904;2023-04-25T00:40:30;5.97;;;5.38;;
11839;SDS011;5979;50.800;4.904;2023-04-25T00:42:56;7.50;;;5.38;;
11839;SDS011;5979;50.800;4.904;2023-04-25T00:45:21;10.77;;;6.05;;
11839;SDS011;5979;50.800;4.904;2023-04-25T00:47:53;9.52;;;5.97;;
11839;SDS011;5979;50.800;4.904;2023-04-25T00:50:19;8.55;;;5.05;;
11839;SDS011;5979;50.800;4.904;2023-04-25T00:52:45;8.88;;;5.50;;
11839;SDS011;5979;50.800;4.904;2023-04-25T00:55:11;9.13;;;6.18;;
11839;SDS011;5979;50.800;4.904;2023-04-25T00:57:37;10.77;;;5.43;;
11839;SDS011;5979;50.800;4.904;2023-04-25T01:00:04;8.70;;;5.60;;
11839;SDS011;5979;50.800;4.904;2023-04-25T01:02:34;9.07;;;6.00;;
11839;SDS011;5979;50.800;4.904;2023-04-25T01:05:01;9.02;;;5.38;;
11839;SDS011;5979;50.800;4.904;2023-04-25T01:07:30;10.43;;;5.50;;
11839;SDS011;5979;50.800;4.904;2023-04-25T01:09:56;10.52;;;5.75;;
11839;SDS011;5979;50.800;4.904;2023-04-25T01:12:22;12.88;;;5.88;;
11839;SDS011;5979;50.800;4.904;2023-04-25T01:14:48;10.65;;;5.47;;
11839;SDS011;5979;50.800;4.904;2023-04-25T01:17:14;10.02;;;5.60;;
11839;SDS011;5979;50.800;4.904;2023-04-25T01:19:41;8.18;;;4.85;;
11839;SDS011;5979;50.800;4.904;2023-04-25T01:22:07;7.72;;;5.30;;
11839;SDS011;5979;50.800;4.904;2023-04-25T01:24:35;10.15;;;5.70;;
11839;SDS011;5979;50.800;4.904;2023-04-25T01:27:01;8.32;;;5.15;;
11839;SDS011;5979;50.800;4.904;2023-04-25T01:29:28;10.07;;;5.80;;
11839;SDS011;5979;50.800;4.904;2023-04-25T01:31:54;11.75;;;6.18;;
11839;SDS011;5979;50.800;4.904;2023-04-25T01:34:23;12.00;;;5.45;;
11839;SDS011;5979;50.800;4.904;2023-04-25T01:36:50;10.50;;;5.53;;
11839;SDS011;5979;50.800;4.904;2023-04-25T01:39:16;11.05;;;5.38;;
11839;SDS011;5979;50.800;4.904;2023-04-25T01:41:43;8.88;;;5.40;;
11839;SDS011;5979;50.800;4.904;2023-04-25T01:44:09;12.68;;;5.22;;
11839;SDS011;5979;50.800;4.904;2023-04-25T01:46:35;10.43;;;5.70;;
11839;SDS011;5979;50.800;4.904;2023-04-25T01:49:01;9.85;;;6.28;;
11839;SDS011;5979;50.800;4.904;2023-04-25T01:51:27;9.40;;;5.60;;
11839;SDS011;5979;50.800;4.904;2023-04-25T01:53:53;12.75;;;5.53;;
11839;SDS011;5979;50.800;4.904;2023-04-25T01:56:20;11.25;;;5.13;;
11839;SDS011;5979;50.800;4.904;2023-04-25T01:58:48;10.10;;;6.30;;
11839;SDS011;5979;50.800;4.904;2023-04-25T02:01:14;13.20;;;5.55;;
11839;SDS011;5979;50.800;4.904;2023-04-25T02:03:40;11.40;;;5.65;;
11839;SDS011;5979;50.800;4.904;2023-04-25T02:06:06;12.18;;;5.97;;
11839;SDS011;5979;50.800;4.904;2023-04-25T02:08:31;10.77;;;5.32;;
11839;SDS011;5979;50.800;4.904;2023-04-25T02:10:57;12.82;;;5.82;;
11839;SDS011;5979;50.800;4.904;2023-04-25T02:13:23;10.45;;;5.60;;
11839;SDS011;5979;50.800;4.904;2023-04-25T02:15:49;11.68;;;5.10;;
11839;SDS011;5979;50.800;4.904;2023-04-25T02:18:15;10.75;;;5.57;;
11839;SDS011;5979;50.800;4.904;2023-04-25T02:20:43;16.10;;;6.30;;
11839;SDS011;5979;50.800;4.904;2023-04-25T02:23:11;10.82;;;5.43;;
11839;SDS011;5979;50.800;4.904;2023-04-25T02:25:36;8.20;;;4.75;;
11839;SDS011;5979;50.800;4.904;2023-04-25T02:28:02;9.60;;;5.65;;
11839;SDS011;5979;50.800;4.904;2023-04-25T02:30:28;9.82;;;5.50;;
11839;SDS011;5979;50.800;4.904;2023-04-25T02:32:54;15.95;;;5.13;;
11839;SDS011;5979;50.800;4.904;2023-04-25T02:35:20;10.43;;;5.70;;
11839;SDS011;5979;50.800;4.904;2023-04-25T02:37:45;14.70;;;5.25;;
11839;SDS011;5979;50.800;4.904;2023-04-25T02:40:11;11.27;;;5.57;;
11839;SDS011;5979;50.800;4.904;2023-04-25T02:42:37;13.10;;;5.57;;
11839;SDS011;5979;50.800;4.904;2023-04-25T02:45:03;9.35;;;5.18;;
11839;SDS011;5979;50.800;4.904;2023-04-25T02:47:29;11.30;;;5.55;;
11839;SDS011;5979;50.800;4.904;2023-04-25T02:49:55;12.70;;;5.80;;
11839;SDS011;5979;50.800;4.904;2023-04-25T02:52:21;13.73;;;5.18;;
11839;SDS011;5979;50.800;4.904;2023-04-25T02:54:46;8.13;;;5.10;;
11839;SDS011;5979;50.800;4.904;2023-04-25T02:57:12;10.45;;;5.30;;
11839;SDS011;5979;50.800;4.904;2023-04-25T02:59:41;14.38;;;5.53;;
11839;SDS011;5979;50.800;4.904;2023-04-25T03:02:07;11.05;;;5.60;;
11839;SDS011;5979;50.800;4.904;2023-04-25T03:04:33;11.50;;;6.22;;
11839;SDS011;5979;50.800;4.904;2023-04-25T03:07:03;10.68;;;5.40;;
11839;SDS011;5979;50.800;4.904;2023-04-25T03:09:30;10.98;;;5.60;;
11839;SDS011;5979;50.800;4.904;2023-04-25T03:11:55;12.63;;;6.20;;
11839;SDS011;5979;50.800;4.904;2023-04-25T03:14:21;15.98;;;5.90;;
11839;SDS011;5979;50.800;4.904;2023-04-25T03:16:47;9.82;;;5.53;;
11839;SDS011;5979;50.800;4.904;2023-04-25T03:19:12;14.90;;;5.88;;
11839;SDS011;5979;50.800;4.904;2023-04-25T03:21:40;12.15;;;5.07;;
11839;SDS011;5979;50.800;4.904;2023-04-25T03:24:09;14.20;;;5.55;;
11839;SDS011;5979;50.800;4.904;2023-04-25T03:26:36;11.95;;;6.15;;
11839;SDS011;5979;50.800;4.904;2023-04-25T03:29:01;12.63;;;5.82;;
11839;SDS011;5979;50.800;4.904;2023-04-25T03:31:27;14.30;;;5.80;;
11839;SDS011;5979;50.800;4.904;2023-04-25T03:33:56;13.18;;;6.05;;
11839;SDS011;5979;50.800;4.904;2023-04-25T03:36:24;12.80;;;5.63;;
11839;SDS011;5979;50.800;4.904;2023-04-25T03:38:50;20.00;;;5.82;;
11839;SDS011;5979;50.800;4.904;2023-04-25T03:41:16;16.95;;;6.05;;
11839;SDS011;5979;50.800;4.904;2023-04-25T03:43:41;11.15;;;5.38;;
11839;SDS011;5979;50.800;4.904;2023-04-25T03:46:07;15.07;;;6.15;;
11839;SDS011;5979;50.800;4.904;2023-04-25T03:48:32;19.85;;;7.40;;
11839;SDS011;5979;50.800;4.904;2023-04-25T03:50:58;14.18;;;5.53;;
11839;SDS011;5979;50.800;4.904;2023-04-25T03:53:24;14.45;;;6.28;;
11839;SDS011;5979;50.800;4.904;2023-04-25T03:55:50;12.93;;;6.03;;
11839;SDS011;5979;50.800;4.904;2023-04-25T03:58:17;10.82;;;5.60;;
11839;SDS011;5979;50.800;4.904;2023-04-25T04:00:43;9.70;;;5.30;;
11839;SDS011;5979;50.800;4.904;2023-04-25T04:03:11;7.90;;;5.28;;
11839;SDS011;5979;50.800;4.904;2023-04-25T04:05:37;14.63;;;5.22;;
11839;SDS011;5979;50.800;4.904;2023-04-25T04:08:05;8.75;;;5.43;;
11839;SDS011;5979;50.800;4.904;2023-04-25T04:10:31;11.82;;;5.60;;
11839;SDS011;5979;50.800;4.904;2023-04-25T04:12:57;12.35;;;5.47;;
11839;SDS011;5979;50.800;4.904;2023-04-25T04:15:22;13.23;;;5.22;;
11839;SDS011;5979;50.800;4.904;2023-04-25T04:17:48;8.73;;;4.93;;
11839;SDS011;5979;50.800;4.904;2023-04-25T04:20:14;13.43;;;5.65;;
11839;SDS011;5979;50.800;4.904;2023-04-25T04:22:39;18.83;;;6.13;;
11839;SDS011;5979;50.800;4.904;2023-04-25T04:25:06;13.75;;;5.90;;
11839;SDS011;5979;50.800;4.904;2023-04-25T04:27:32;13.48;;;5.90;;
11839;SDS011;5979;50.800;4.904;2023-04-25T04:30:00;11.93;;;5.57;;
11839;SDS011;5979;50.800;4.904;2023-04-25T04:32:31;19.92;;;5.95;;
11839;SDS011;5979;50.800;4.904;2023-04-25T04:34:58;12.80;;;5.35;;
11839;SDS011;5979;50.800;4.904;2023-04-25T04:37:24;17.02;;;5.95;;
11839;SDS011;5979;50.800;4.904;2023-04-25T04:39:50;13.65;;;5.70;;
11839;SDS011;5979;50.800;4.904;2023-04-25T04:42:16;15.65;;;5.82;;
11839;SDS011;5979;50.800;4.904;2023-04-25T04:44:42;17.77;;;5.65;;
11839;SDS011;5979;50.800;4.904;2023-04-25T04:47:09;11.55;;;5.30;;
11839;SDS011;5979;50.800;4.904;2023-04-25T04:49:35;13.65;;;6.05;;
11839;SDS011;5979;50.800;4.904;2023-04-25T04:52:01;11.15;;;5.47;;
11839;SDS011;5979;50.800;4.904;2023-04-25T04:54:27;12.02;;;5.63;;
11839;SDS011;5979;50.800;4.904;2023-04-25T04:56:52;12.65;;;5.20;;
11839;SDS011;5979;50.800;4.904;2023-04-25T04:59:18;16.80;;;5.85;;
11839;SDS011;5979;50.800;4.904;2023-04-25T05:01:44;9.88;;;5.30;;
11839;SDS011;5979;50.800;4.904;2023-04-25T05:04:10;15.35;;;5.40;;
11839;SDS011;5979;50.800;4.904;2023-04-25T05:06:36;12.60;;;5.35;;
11839;SDS011;5979;50.800;4.904;2023-04-25T05:09:02;9.93;;;5.57;;
11839;SDS011;5979;50.800;4.904;2023-04-25T05:11:30;10.02;;;5.05;;
11839;SDS011;5979;50.800;4.904;2023-04-25T05:13:58;19.65;;;5.90;;
11839;SDS011;5979;50.800;4.904;2023-04-25T05:16:24;12.00;;;5.30;;
11839;SDS011;5979;50.800;4.904;2023-04-25T05:18:50;14.02;;;5.55;;
11839;SDS011;5979;50.800;4.904;2023-04-25T05:21:16;10.95;;;5.47;;
11839;SDS011;5979;50.800;4.904;2023-04-25T05:23:42;10.10;;;5.82;;
11839;SDS011;5979;50.800;4.904;2023-04-25T05:26:07;12.15;;;5.55;;
11839;SDS011;5979;50.800;4.904;2023-04-25T05:28:38;16.25;;;5.20;;
11839;SDS011;5979;50.800;4.904;2023-04-25T05:31:09;15.48;;;5.75;;
11839;SDS011;5979;50.800;4.904;2023-04-25T05:33:35;14.60;;;5.25;;
11839;SDS011;5979;50.800;4.904;2023-04-25T05:36:00;10.18;;;4.57;;
11839;SDS011;5979;50.800;4.904;2023-04-25T05:38:26;9.75;;;5.38;;
11839;SDS011;5979;50.800;4.904;2023-04-25T05:40:52;9.43;;;4.60;;
11839;SDS011;5979;50.800;4.904;2023-04-25T05:43:18;14.57;;;5.55;;
11839;SDS011;5979;50.800;4.904;2023-04-25T05:45:44;9.90;;;4.95;;
11839;SDS011;5979;50.800;4.904;2023-04-25T05:48:09;12.57;;;5.15;;
11839;SDS011;5979;50.800;4.904;2023-04-25T05:50:35;8.57;;;5.90;;
11839;SDS011;5979;50.800;4.904;2023-04-25T05:53:01;13.38;;;5.53;;
11839;SDS011;5979;50.800;4.904;2023-04-25T05:55:27;10.02;;;4.90;;
11839;SDS011;5979;50.800;4.904;2023-04-25T05:57:53;9.60;;;5.15;;
11839;SDS011;5979;50.800;4.904;2023-04-25T06:00:18;11.15;;;5.88;;
11839;SDS011;5979;50.800;4.904;2023-04-25T06:02:46;9.85;;;4.97;;
11839;SDS011;5979;50.800;4.904;2023-04-25T06:05:12;8.73;;;4.90;;
11839;SDS011;5979;50.800;4.904;2023-04-25T06:07:37;14.63;;;5.88;;
11839;SDS011;5979;50.800;4.904;2023-04-25T06:10:03;9.98;;;5.82;;
11839;SDS011;5979;50.800;4.904;2023-04-25T06:12:31;12.63;;;6.07;;
11839;SDS011;5979;50.800;4.904;2023-04-25T06:14:58;11.63;;;5.70;;
11839;SDS011;5979;50.800;4.904;2023-04-25T06:17:24;11.32;;;6.32;;
11839;SDS011;5979;50.800;4.904;2023-04-25T06:19:49;10.63;;;5.85;;
11839;SDS011;5979;50.800;4.904;2023-04-25T06:22:15;12.90;;;5.47;;
11839;SDS011;5979;50.800;4.904;2023-04-25T06:24:41;10.60;;;5.35;;
11839;SDS011;5979;50.800;4.904;2023-04-25T06:27:06;15.00;;;6.40;;
11839;SDS011;5979;50.800;4.904;2023-04-25T06:29:32;11.15;;;5.20;;
11839;SDS011;5979;50.800;4.904;2023-04-25T06:31:58;13.80;;;5.65;;
11839;SDS011;5979;50.800;4.904;2023-04-25T06:34:23;10.35;;;5.60;;
11839;SDS011;5979;50.800;4.904;2023-04-25T06:36:49;11.93;;;6.18;;
11839;SDS011;5979;50.800;4.904;2023-04-25T06:39:18;10.00;;;5.13;;
11839;SDS011;5979;50.800;4.904;2023-04-25T06:41:45;8.18;;;5.28;;
11839;SDS011;5979;50.800;4.904;2023-04-25T06:44:10;9.68;;;5.28;;
11839;SDS011;5979;50.800;4.904;2023-04-25T06:46:40;13.05;;;5.50;;
11839;SDS011;5979;50.800;4.904;2023-04-25T06:49:06;16.13;;;5.82;;
11839;SDS011;5979;50.800;4.904;2023-04-25T06:51:31;14.38;;;5.28;;
11839;SDS011;5979;50.800;4.904;2023-04-25T06:53:57;12.95;;;5.25;;
11839;SDS011;5979;50.800;4.904;2023-04-25T06:56:24;9.75;;;5.15;;
11839;SDS011;5979;50.800;4.904;2023-04-25T06:58:54;12.52;;;4.97;;
11839;SDS011;5979;50.800;4.904;2023-04-25T07:01:20;11.52;;;5.32;;
11839;SDS011;5979;50.800;4.904;2023-04-25T07:03:45;10.75;;;4.95;;
11839;SDS011;5979;50.800;4.904;2023-04-25T07:06:11;10.85;;;5.35;;
11839;SDS011;5979;50.800;4.904;2023-04-25T07:08:37;12.25;;;5.25;;
11839;SDS011;5979;50.800;4.904;2023-04-25T07:11:03;9.75;;;5.30;;
11839;SDS011;5979;50.800;4.904;2023-04-25T07:13:28;11.30;;;5.20;;
11839;SDS011;5979;50.800;4.904;2023-04-25T07:15:54;7.18;;;5.10;;
11839;SDS011;5979;50.800;4.904;2023-04-25T07:18:21;7.90;;;5.25;;
11839;SDS011;5979;50.800;4.904;2023-04-25T07:20:47;11.23;;;4.97;;
11839;SDS011;5979;50.800;4.904;2023-04-25T07:23:13;10.45;;;5.00;;
11839;SDS011;5979;50.800;4.904;2023-04-25T07:25:46;9.95;;;5.38;;
11839;SDS011;5979;50.800;4.904;2023-04-25T07:28:18;11.55;;;5.00;;
11839;SDS011;5979;50.800;4.904;2023-04-25T07:30:46;10.13;;;5.35;;
11839;SDS011;5979;50.800;4.904;2023-04-25T07:33:12;11.55;;;5.03;;
11839;SDS011;5979;50.800;4.904;2023-04-25T07:35:41;14.50;;;5.22;;
11839;SDS011;5979;50.800;4.904;2023-04-25T07:38:07;13.43;;;5.47;;
11839;SDS011;5979;50.800;4.904;2023-04-25T07:40:35;15.95;;;5.68;;
11839;SDS011;5979;50.800;4.904;2023-04-25T07:43:00;12.82;;;5.07;;
11839;SDS011;5979;50.800;4.904;2023-04-25T07:45:26;9.00;;;5.38;;
11839;SDS011;5979;50.800;4.904;2023-04-25T07:47:52;12.63;;;4.72;;
11839;SDS011;5979;50.800;4.904;2023-04-25T07:50:18;8.00;;;4.70;;
11839;SDS011;5979;50.800;4.904;2023-04-25T07:52:43;13.98;;;4.72;;
11839;SDS011;5979;50.800;4.904;2023-04-25T07:55:09;15.90;;;5.40;;
11839;SDS011;5979;50.800;4.904;2023-04-25T07:57:37;12.18;;;5.07;;
11839;SDS011;5979;50.800;4.904;2023-04-25T08:00:03;12.48;;;4.60;;
11839;SDS011;5979;50.800;4.904;2023-04-25T08:02:33;11.75;;;4.53;;
11839;SDS011;5979;50.800;4.904;2023-04-25T08:04:59;11.50;;;4.35;;
11839;SDS011;5979;50.800;4.904;2023-04-25T08:07:25;9.95;;;4.68;;
11839;SDS011;5979;50.800;4.904;2023-04-25T08:09:51;10.80;;;4.40;;
11839;SDS011;5979;50.800;4.904;2023-04-25T08:12:17;10.82;;;4.40;;
11839;SDS011;5979;50.800;4.904;2023-04-25T08:14:43;10.25;;;4.95;;
11839;SDS011;5979;50.800;4.904;2023-04-25T08:17:09;9.68;;;4.30;;
11839;SDS011;5979;50.800;4.904;2023-04-25T08:19:35;11.35;;;4.55;;
11839;SDS011;5979;50.800;4.904;2023-04-25T08:22:01;8.55;;;4.35;;
11839;SDS011;5979;50.800;4.904;2023-04-25T08:24:27;10.10;;;3.70;;
11839;SDS011;5979;50.800;4.904;2023-04-25T08:26:53;9.75;;;3.88;;
11839;SDS011;5979;50.800;4.904;2023-04-25T08:29:19;14.60;;;4.55;;
11839;SDS011;5979;50.800;4.904;2023-04-25T08:31:45;9.35;;;4.15;;
11839;SDS011;5979;50.800;4.904;2023-04-25T08:34:11;9.40;;;4.50;;
11839;SDS011;5979;50.800;4.904;2023-04-25T08:36:37;12.57;;;4.25;;
11839;SDS011;5979;50.800;4.904;2023-04-25T08:39:04;8.45;;;3.90;;
11839;SDS011;5979;50.800;4.904;2023-04-25T08:41:30;12.02;;;3.85;;
11839;SDS011;5979;50.800;4.904;2023-04-25T08:43:56;7.22;;;3.38;;
11839;SDS011;5979;50.800;4.904;2023-04-25T08:46:25;8.45;;;3.47;;
11839;SDS011;5979;50.800;4.904;2023-04-25T08:48:52;10.10;;;3.60;;
11839;SDS011;5979;50.800;4.904;2023-04-25T08:51:22;10.55;;;3.97;;
11839;SDS011;5979;50.800;4.904;2023-04-25T08:53:50;8.57;;;3.35;;
11839;SDS011;5979;50.800;4.904;2023-04-25T08:56:17;8.68;;;3.67;;
11839;SDS011;5979;50.800;4.904;2023-04-25T08:58:45;7.78;;;3.05;;
11839;SDS011;5979;50.800;4.904;2023-04-25T09:01:13;9.90;;;3.78;;
11839;SDS011;5979;50.800;4.904;2023-04-25T09:03:39;8.75;;;3.33;;
11839;SDS011;5979;50.800;4.904;2023-04-25T09:06:05;8.65;;;3.83;;
11839;SDS011;5979;50.800;4.904;2023-04-25T09:08:32;10.23;;;3.65;;
11839;SDS011;5979;50.800;4.904;2023-04-25T09:10:58;11.57;;;3.60;;
11839;SDS011;5979;50.800;4.904;2023-04-25T09:13:24;9.73;;;4.38;;
11839;SDS011;5979;50.800;4.904;2023-04-25T09:18:22;7.15;;;3.90;;
11839;SDS011;5979;50.800;4.904;2023-04-25T09:20:50;6.85;;;3.60;;
11839;SDS011;5979;50.800;4.904;2023-04-25T09:23:20;5.22;;;3.63;;
11839;SDS011;5979;50.800;4.904;2023-04-25T09:25:47;5.97;;;3.10;;
11839;SDS011;5979;50.800;4.904;2023-04-25T09:28:14;6.65;;;3.50;;
11839;SDS011;5979;50.800;4.904;2023-04-25T09:30:41;5.40;;;3.33;;
11839;SDS011;5979;50.800;4.904;2023-04-25T09:33:08;9.80;;;3.53;;
11839;SDS011;5979;50.800;4.904;2023-04-25T09:35:35;5.00;;;2.92;;
11839;SDS011;5979;50.800;4.904;2023-04-25T09:38:13;6.95;;;3.30;;
11839;SDS011;5979;50.800;4.904;2023-04-25T09:40:43;7.57;;;3.17;;
11839;SDS011;5979;50.800;4.904;2023-04-25T09:43:20;5.45;;;3.05;;
11839;SDS011;5979;50.800;4.904;2023-04-25T09:45:46;6.20;;;3.33;;
11839;SDS011;5979;50.800;4.904;2023-04-25T09:48:21;7.55;;;3.03;;
11839;SDS011;5979;50.800;4.904;2023-04-25T09:53:33;4.57;;;2.85;;
11839;SDS011;5979;50.800;4.904;2023-04-25T09:56:03;8.07;;;3.22;;
11839;SDS011;5979;50.800;4.904;2023-04-25T09:58:31;5.22;;;2.72;;
11839;SDS011;5979;50.800;4.904;2023-04-25T10:00:59;11.20;;;3.22;;
11839;SDS011;5979;50.800;4.904;2023-04-25T10:03:29;5.30;;;3.38;;
11839;SDS011;5979;50.800;4.904;2023-04-25T10:05:57;10.75;;;3.33;;
11839;SDS011;5979;50.800;4.904;2023-04-25T10:08:27;6.68;;;3.38;;
11839;SDS011;5979;50.800;4.904;2023-04-25T10:11:03;4.38;;;2.90;;
11839;SDS011;5979;50.800;4.904;2023-04-25T10:13:33;7.25;;;3.88;;
11839;SDS011;5979;50.800;4.904;2023-04-25T10:16:04;10.13;;;3.60;;
11839;SDS011;5979;50.800;4.904;2023-04-25T10:18:31;6.43;;;3.40;;
11839;SDS011;5979;50.800;4.904;2023-04-25T10:21:01;4.70;;;2.88;;
11839;SDS011;5979;50.800;4.904;2023-04-25T10:23:29;7.93;;;2.80;;
11839;SDS011;5979;50.800;4.904;2023-04-25T10:25:56;2.75;;;2.53;;
11839;SDS011;5979;50.800;4.904;2023-04-25T10:28:23;6.22;;;2.53;;
11839;SDS011;5979;50.800;4.904;2023-04-25T10:30:59;12.43;;;3.63;;
11839;SDS011;5979;50.800;4.904;2023-04-25T10:33:29;5.82;;;3.35;;
11839;SDS011;5979;50.800;4.904;2023-04-25T10:36:17;6.72;;;3.13;;
11839;SDS011;5979;50.800;4.904;2023-04-25T10:38:44;6.75;;;2.78;;
11839;SDS011;5979;50.800;4.904;2023-04-25T10:41:11;6.50;;;3.08;;
11839;SDS011;5979;50.800;4.904;2023-04-25T10:48:44;6.38;;;2.67;;
11839;SDS011;5979;50.800;4.904;2023-04-25T10:51:22;6.85;;;3.00;;
11839;SDS011;5979;50.800;4.904;2023-04-25T10:56:21;5.88;;;2.40;;
11839;SDS011;5979;50.800;4.904;2023-04-25T10:58:51;3.65;;;2.45;;
11839;SDS011;5979;50.800;4.904;2023-04-25T11:01:20;3.83;;;1.60;;
11839;SDS011;5979;50.800;4.904;2023-04-25T11:03:49;3.15;;;1.45;;
11839;SDS011;5979;50.800;4.904;2023-04-25T11:06:23;3.22;;;1.63;;
11839;SDS011;5979;50.800;4.904;2023-04-25T11:09:15;3.13;;;1.80;;
11839;SDS011;5979;50.800;4.904;2023-04-25T11:11:41;6.80;;;2.53;;
11839;SDS011;5979;50.800;4.904;2023-04-25T11:14:07;2.53;;;2.10;;
11839;SDS011;5979;50.800;4.904;2023-04-25T11:16:33;4.15;;;1.98;;
11839;SDS011;5979;50.800;4.904;2023-04-25T11:19:01;3.88;;;1.90;;
11839;SDS011;5979;50.800;4.904;2023-04-25T11:21:27;2.53;;;1.85;;
11839;SDS011;5979;50.800;4.904;2023-04-25T11:23:55;2.58;;;1.70;;
11839;SDS011;5979;50.800;4.904;2023-04-25T11:26:21;2.08;;;1.70;;
11839;SDS011;5979;50.800;4.904;2023-04-25T11:28:48;2.75;;;1.80;;
11839;SDS011;5979;50.800;4.904;2023-04-25T11:31:14;1.95;;;1.50;;
11839;SDS011;5979;50.800;4.904;2023-04-25T11:33:40;2.72;;;1.52;;
11839;SDS011;5979;50.800;4.904;2023-04-25T11:36:07;3.08;;;1.73;;
11839;SDS011;5979;50.800;4.904;2023-04-25T11:38:34;3.20;;;1.88;;
11839;SDS011;5979;50.800;4.904;2023-04-25T11:41:00;1.95;;;1.70;;
11839;SDS011;5979;50.800;4.904;2023-04-25T11:43:26;3.05;;;1.83;;
11839;SDS011;5979;50.800;4.904;2023-04-25T11:45:51;3.60;;;1.73;;
11839;SDS011;5979;50.800;4.904;2023-04-25T11:48:18;3.45;;;1.50;;
11839;SDS011;5979;50.800;4.904;2023-04-25T11:50:45;2.15;;;1.58;;
11839;SDS011;5979;50.800;4.904;2023-04-25T11:53:10;3.28;;;1.90;;
11839;SDS011;5979;50.800;4.904;2023-04-25T11:55:37;3.25;;;2.25;;
11839;SDS011;5979;50.800;4.904;2023-04-25T11:58:03;3.15;;;2.03;;
11839;SDS011;5979;50.800;4.904;2023-04-25T12:00:30;2.22;;;2.03;;
11839;SDS011;5979;50.800;4.904;2023-04-25T12:02:56;2.75;;;2.28;;
11839;SDS011;5979;50.800;4.904;2023-04-25T12:05:24;3.08;;;1.80;;
11839;SDS011;5979;50.800;4.904;2023-04-25T12:07:51;3.63;;;2.08;;
11839;SDS011;5979;50.800;4.904;2023-04-25T12:10:17;2.80;;;2.00;;
11839;SDS011;5979;50.800;4.904;2023-04-25T12:12:44;3.33;;;1.95;;
11839;SDS011;5979;50.800;4.904;2023-04-25T12:15:12;4.72;;;2.10;;
11839;SDS011;5979;50.800;4.904;2023-04-25T12:17:44;3.45;;;2.00;;
11839;SDS011;5979;50.800;4.904;2023-04-25T12:20:16;2.38;;;2.08;;
11839;SDS011;5979;50.800;4.904;2023-04-25T12:22:51;7.10;;;2.33;;
11839;SDS011;5979;50.800;4.904;2023-04-25T12:25:37;2.45;;;2.22;;
11839;SDS011;5979;50.800;4.904;2023-04-25T12:30:57;3.20;;;2.15;;
11839;SDS011;5979;50.800;4.904;2023-04-25T12:33:24;6.35;;;2.40;;
11839;SDS011;5979;50.800;4.904;2023-04-25T12:35:51;4.05;;;2.40;;
11839;SDS011;5979;50.800;4.904;2023-04-25T12:38:27;6.68;;;2.60;;
11839;SDS011;5979;50.800;4.904;2023-04-25T12:40:55;7.50;;;2.10;;
11839;SDS011;5979;50.800;4.904;2023-04-25T12:43:21;4.50;;;2.35;;
11839;SDS011;5979;50.800;4.904;2023-04-25T12:45:48;5.05;;;2.70;;
11839;SDS011;5979;50.800;4.904;2023-04-25T12:48:18;5.20;;;2.33;;
11839;SDS011;5979;50.800;4.904;2023-04-25T12:50:44;2.10;;;1.83;;
11839;SDS011;5979;50.800;4.904;2023-04-25T12:53:10;2.60;;;1.90;;
11839;SDS011;5979;50.800;4.904;2023-04-25T12:55:36;2.60;;;1.98;;
11839;SDS011;5979;50.800;4.904;2023-04-25T12:58:02;3.60;;;1.98;;
11839;SDS011;5979;50.800;4.904;2023-04-25T13:00:28;3.42;;;2.22;;
11839;SDS011;5979;50.800;4.904;2023-04-25T13:02:55;5.22;;;2.20;;
11839;SDS011;5979;50.800;4.904;2023-04-25T13:05:21;4.30;;;2.20;;
11839;SDS011;5979;50.800;4.904;2023-04-25T13:07:47;3.05;;;2.10;;
11839;SDS011;5979;50.800;4.904;2023-04-25T13:10:12;5.70;;;1.75;;
11839;SDS011;5979;50.800;4.904;2023-04-25T13:12:38;2.97;;;2.10;;
11839;SDS011;5979;50.800;4.904;2023-04-25T13:15:04;6.68;;;2.13;;
11839;SDS011;5979;50.800;4.904;2023-04-25T13:17:30;4.45;;;2.00;;
11839;SDS011;5979;50.800;4.904;2023-04-25T13:19:55;3.38;;;2.10;;
11839;SDS011;5979;50.800;4.904;2023-04-25T13:22:21;3.85;;;2.17;;
11839;SDS011;5979;50.800;4.904;2023-04-25T13:24:47;3.22;;;2.20;;
11839;SDS011;5979;50.800;4.904;2023-04-25T13:27:12;2.60;;;1.80;;
11839;SDS011;5979;50.800;4.904;2023-04-25T13:29:38;4.80;;;1.95;;
11839;SDS011;5979;50.800;4.904;2023-04-25T13:32:05;2.55;;;1.83;;
11839;SDS011;5979;50.800;4.904;2023-04-25T13:34:31;4.03;;;1.92;;
11839;SDS011;5979;50.800;4.904;2023-04-25T13:36:57;4.15;;;1.90;;
11839;SDS011;5979;50.800;4.904;2023-04-25T13:39:23;2.30;;;1.58;;
11839;SDS011;5979;50.800;4.904;2023-04-25T13:41:49;3.50;;;1.70;;
11839;SDS011;5979;50.800;4.904;2023-04-25T13:44:15;3.22;;;1.80;;
11839;SDS011;5979;50.800;4.904;2023-04-25T13:46:41;2.15;;;1.90;;
11839;SDS011;5979;50.800;4.904;2023-04-25T13:49:07;3.92;;;1.70;;
11839;SDS011;5979;50.800;4.904;2023-04-25T13:51:32;4.68;;;2.10;;
11839;SDS011;5979;50.800;4.904;2023-04-25T13:53:58;3.83;;;2.00;;
11839;SDS011;5979;50.800;4.904;2023-04-25T13:56:24;5.10;;;2.05;;
11839;SDS011;5979;50.800;4.904;2023-04-25T13:58:50;4.05;;;1.92;;
11839;SDS011;5979;50.800;4.904;2023-04-25T14:01:16;3.35;;;1.85;;
11839;SDS011;5979;50.800;4.904;2023-04-25T14:03:42;4.45;;;1.83;;
11839;SDS011;5979;50.800;4.904;2023-04-25T14:06:08;4.55;;;1.85;;
11839;SDS011;5979;50.800;4.904;2023-04-25T14:08:34;4.57;;;1.80;;
11839;SDS011;5979;50.800;4.904;2023-04-25T14:11:00;2.50;;;1.38;;
11839;SDS011;5979;50.800;4.904;2023-04-25T14:13:26;3.78;;;1.77;;
11839;SDS011;5979;50.800;4.904;2023-04-25T14:15:52;3.65;;;1.58;;
11839;SDS011;5979;50.800;4.904;2023-04-25T14:18:18;2.83;;;1.63;;
11839;SDS011;5979;50.800;4.904;2023-04-25T14:20:44;2.33;;;1.30;;
11839;SDS011;5979;50.800;4.904;2023-04-25T14:23:10;1.65;;;1.50;;
11839;SDS011;5979;50.800;4.904;2023-04-25T14:25:36;4.15;;;1.48;;
11839;SDS011;5979;50.800;4.904;2023-04-25T14:28:02;3.13;;;1.98;;
11839;SDS011;5979;50.800;4.904;2023-04-25T14:30:28;1.67;;;1.58;;
11839;SDS011;5979;50.800;4.904;2023-04-25T14:32:54;1.77;;;1.67;;
11839;SDS011;5979;50.800;4.904;2023-04-25T14:35:20;3.05;;;1.60;;
11839;SDS011;5979;50.800;4.904;2023-04-25T14:37:46;3.03;;;1.65;;
11839;SDS011;5979;50.800;4.904;2023-04-25T14:40:12;2.13;;;1.52;;
11839;SDS011;5979;50.800;4.904;2023-04-25T14:42:40;3.33;;;1.98;;
11839;SDS011;5979;50.800;4.904;2023-04-25T14:45:06;3.70;;;1.70;;
11839;SDS011;5979;50.800;4.904;2023-04-25T14:47:33;1.98;;;1.75;;
11839;SDS011;5979;50.800;4.904;2023-04-25T14:50:01;2.50;;;1.80;;
11839;SDS011;5979;50.800;4.904;2023-04-25T14:52:27;2.40;;;1.60;;
11839;SDS011;5979;50.800;4.904;2023-04-25T14:54:52;4.03;;;1.80;;
11839;SDS011;5979;50.800;4.904;2023-04-25T14:57:18;2.08;;;1.50;;
11839;SDS011;5979;50.800;4.904;2023-04-25T14:59:44;3.85;;;1.60;;
11839;SDS011;5979;50.800;4.904;2023-04-25T15:02:10;3.78;;;1.50;;
11839;SDS011;5979;50.800;4.904;2023-04-25T15:04:36;4.68;;;1.98;;
11839;SDS011;5979;50.800;4.904;2023-04-25T15:07:02;5.50;;;1.80;;
11839;SDS011;5979;50.800;4.904;2023-04-25T15:09:29;3.70;;;1.40;;